sensor_id;sensor_type;location;lat;lon;timestamp;pressure;altitude;pressure_sealevel;temperature;humidity
45403;BME280;47427;51.976;5.326;2023-03-23T00:00:51;100167.38;;;11.35;100.00
45403;BME280;47427;51.976;5.326;2023-03-23T00:04:12;100128.66;;;11.19;100.00
45403;BME280;47427;51.976;5.326;2023-03-23T00:07:35;100138.44;;;11.31;100.00
45403;BME280;47427;51.976;5.326;2023-03-23T00:10:57;100135.81;;;11.34;100.00
45403;BME280;47427;51.976;5.326;2023-03-23T00:14:20;100111.13;;;11.16;100.00
45403;BME280;47427;51.976;5.326;2023-03-23T00:17:44;100091.69;;;11.00;100.00
45403;BME280;47427;51.976;5.326;2023-03-23T00:21:06;100095.88;;;10.84;100.00
45403;BME280;47427;51.976;5.326;2023-03-23T00:24:28;100116.06;;;10.93;100.00
45403;BME280;47427;51.976;5.326;2023-03-23T00:27:51;100121.28;;;10.90;100.00
45403;BME280;47427;51.976;5.326;2023-03-23T00:31:14;100125.81;;;11.00;100.00
45403;BME280;47427;51.976;5.326;2023-03-23T00:34:38;100117.28;;;11.21;100.00
45403;BME280;47427;51.976;5.326;2023-03-23T00:38:23;100106.81;;;11.23;100.00
45403;BME280;47427;51.976;5.326;2023-03-23T00:41:48;100111.28;;;11.30;100.00
45403;BME280;47427;51.976;5.326;2023-03-23T00:45:11;100104.25;;;11.29;100.00
45403;BME280;47427;51.976;5.326;2023-03-23T00:48:33;100088.53;;;11.31;100.00
45403;BME280;47427;51.976;5.326;2023-03-23T00:51:58;100065.69;;;11.23;100.00
45403;BME280;47427;51.976;5.326;2023-03-23T00:55:21;100059.63;;;11.31;100.00
45403;BME280;47427;51.976;5.326;2023-03-23T00:58:43;100050.88;;;11.28;100.00
45403;BME280;47427;51.976;5.326;2023-03-23T01:02:07;100058.75;;;11.27;100.00
45403;BME280;47427;51.976;5.326;2023-03-23T01:05:38;100072.72;;;11.26;100.00
45403;BME280;47427;51.976;5.326;2023-03-23T01:09:00;100065.69;;;11.23;100.00
45403;BME280;47427;51.976;5.326;2023-03-23T01:12:23;100071.81;;;11.22;100.00
45403;BME280;47427;51.976;5.326;2023-03-23T01:15:46;100079.84;;;11.35;100.00
45403;BME280;47427;51.976;5.326;2023-03-23T01:19:08;100075.44;;;11.35;100.00
45403;BME280;47427;51.976;5.326;2023-03-23T01:22:35;100057.09;;;11.38;100.00
45403;BME280;47427;51.976;5.326;2023-03-23T01:25:56;100038.72;;;11.41;100.00
45403;BME280;47427;51.976;5.326;2023-03-23T01:29:21;100055.38;;;11.40;100.00
45403;BME280;47427;51.976;5.326;2023-03-23T01:32:45;100030.88;;;11.43;100.00
45403;BME280;47427;51.976;5.326;2023-03-23T01:36:12;100043.97;;;11.41;100.00
45403;BME280;47427;51.976;5.326;2023-03-23T01:39:36;100042.19;;;11.36;100.00
45403;BME280;47427;51.976;5.326;2023-03-23T01:42:58;100048.31;;;11.36;100.00
45403;BME280;47427;51.976;5.326;2023-03-23T01:46:21;100036.97;;;11.37;100.00
45403;BME280;47427;51.976;5.326;2023-03-23T01:49:46;100033.44;;;11.35;100.00
45403;BME280;47427;51.976;5.326;2023-03-23T01:53:10;100036.06;;;11.35;100.00
45403;BME280;47427;51.976;5.326;2023-03-23T01:56:41;100031.66;;;11.34;100.00
45403;BME280;47427;51.976;5.326;2023-03-23T02:00:08;100030.78;;;11.32;100.00
45403;BME280;47427;51.976;5.326;2023-03-23T02:03:37;100025.53;;;11.32;100.00
45403;BME280;47427;51.976;5.326;2023-03-23T02:07:01;100022.06;;;11.38;100.00
45403;BME280;47427;51.976;5.326;2023-03-23T02:10:23;99995.59;;;11.15;100.00
45403;BME280;47427;51.976;5.326;2023-03-23T02:13:46;100020.28;;;11.32;100.00
45403;BME280;47427;51.976;5.326;2023-03-23T02:17:17;100024.66;;;11.36;100.00
45403;BME280;47427;51.976;5.326;2023-03-23T02:25:06;100032.63;;;11.42;100.00
45403;BME280;47427;51.976;5.326;2023-03-23T02:37:03;100024.81;;;11.52;100.00
45403;BME280;47427;51.976;5.326;2023-03-23T02:40:35;100029.25;;;11.56;100.00
45403;BME280;47427;51.976;5.326;2023-03-23T02:44:02;100023.09;;;11.54;100.00
45403;BME280;47427;51.976;5.326;2023-03-23T02:47:26;100029.25;;;11.56;100.00
45403;BME280;47427;51.976;5.326;2023-03-23T02:50:52;100008.28;;;11.63;100.00
45403;BME280;47427;51.976;5.326;2023-03-23T02:54:15;100011.84;;;11.70;100.00
45403;BME280;47427;51.976;5.326;2023-03-23T02:57:40;100032.91;;;11.73;100.00
45403;BME280;47427;51.976;5.326;2023-03-23T03:05:01;100020.69;;;11.81;100.00
45403;BME280;47427;51.976;5.326;2023-03-23T03:08:35;100008.38;;;11.77;100.00
45403;BME280;47427;51.976;5.326;2023-03-23T03:12:11;100019.81;;;11.78;100.00
45403;BME280;47427;51.976;5.326;2023-03-23T03:15:44;100011.88;;;11.73;100.00
45403;BME280;47427;51.976;5.326;2023-03-23T03:19:18;100017.19;;;11.78;100.00
45403;BME280;47427;51.976;5.326;2023-03-23T03:22:43;100015.47;;;11.86;100.00
45403;BME280;47427;51.976;5.326;2023-03-23T03:26:06;100014.66;;;11.88;100.00
45403;BME280;47427;51.976;5.326;2023-03-23T03:29:40;100007.66;;;11.90;100.00
45403;BME280;47427;51.976;5.326;2023-03-23T03:33:05;100001.50;;;11.90;100.00
45403;BME280;47427;51.976;5.326;2023-03-23T03:36:30;99997.03;;;11.78;100.00
45403;BME280;47427;51.976;5.326;2023-03-23T03:39:59;100009.41;;;11.88;100.00
45403;BME280;47427;51.976;5.326;2023-03-23T03:43:21;100012.03;;;11.91;100.00
45403;BME280;47427;51.976;5.326;2023-03-23T03:46:44;99995.34;;;11.86;100.00
45403;BME280;47427;51.976;5.326;2023-03-23T03:50:07;99995.41;;;11.92;100.00
45403;BME280;47427;51.976;5.326;2023-03-23T03:53:30;100004.94;;;11.84;100.00
45403;BME280;47427;51.976;5.326;2023-03-23T03:56:52;100002.38;;;11.89;100.00
45403;BME280;47427;51.976;5.326;2023-03-23T04:00:44;99991.81;;;11.84;100.00
45403;BME280;47427;51.976;5.326;2023-03-23T04:04:14;99988.38;;;11.91;100.00
45403;BME280;47427;51.976;5.326;2023-03-23T04:07:36;100001.56;;;11.93;100.00
45403;BME280;47427;51.976;5.326;2023-03-23T04:10:59;100001.53;;;11.95;100.00
45403;BME280;47427;51.976;5.326;2023-03-23T04:14:25;100005.06;;;11.97;100.00
45403;BME280;47427;51.976;5.326;2023-03-23T04:17:49;100001.53;;;11.95;100.00
45403;BME280;47427;51.976;5.326;2023-03-23T04:21:11;100012.09;;;11.99;100.00
45403;BME280;47427;51.976;5.326;2023-03-23T04:24:34;100021.75;;;11.99;100.00
45403;BME280;47427;51.976;5.326;2023-03-23T04:28:01;100023.47;;;11.97;100.00
45403;BME280;47427;51.976;5.326;2023-03-23T04:31:28;100030.47;;;11.95;100.00
45403;BME280;47427;51.976;5.326;2023-03-23T04:35:04;100052.41;;;11.98;100.00
45403;BME280;47427;51.976;5.326;2023-03-23T04:38:34;100027.91;;;12.04;100.00
45403;BME280;47427;51.976;5.326;2023-03-23T04:42:04;100023.53;;;12.03;100.00
45403;BME280;47427;51.976;5.326;2023-03-23T04:45:58;100044.50;;;12.00;100.00
45403;BME280;47427;51.976;5.326;2023-03-23T04:49:24;100048.06;;;12.00;100.00
45403;BME280;47427;51.976;5.326;2023-03-23T04:52:57;100053.38;;;12.08;100.00
45403;BME280;47427;51.976;5.326;2023-03-23T04:56:20;100051.59;;;12.05;100.00
45403;BME280;47427;51.976;5.326;2023-03-23T04:59:43;100055.94;;;12.02;100.00
45403;BME280;47427;51.976;5.326;2023-03-23T05:03:12;100045.91;;;11.58;100.00
45403;BME280;47427;51.976;5.326;2023-03-23T05:06:37;100033.94;;;10.99;100.00
45403;BME280;47427;51.976;5.326;2023-03-23T05:10:10;100050.94;;;10.60;100.00
45403;BME280;47427;51.976;5.326;2023-03-23T05:13:33;100046.28;;;10.39;100.00
45403;BME280;47427;51.976;5.326;2023-03-23T05:16:55;100003.00;;;10.09;100.00
45403;BME280;47427;51.976;5.326;2023-03-23T05:20:19;100050.59;;;10.35;100.00
45403;BME280;47427;51.976;5.326;2023-03-23T05:24:05;100039.28;;;10.39;100.00
45403;BME280;47427;51.976;5.326;2023-03-23T05:27:28;100027.91;;;10.36;100.00
45403;BME280;47427;51.976;5.326;2023-03-23T05:30:54;100032.31;;;10.38;100.00
45403;BME280;47427;51.976;5.326;2023-03-23T05:34:19;100043.66;;;10.39;100.00
45403;BME280;47427;51.976;5.326;2023-03-23T05:37:49;100048.16;;;10.49;100.00
45403;BME280;47427;51.976;5.326;2023-03-23T05:41:11;100055.22;;;10.55;100.00
45403;BME280;47427;51.976;5.326;2023-03-23T05:44:36;100036.06;;;10.59;100.00
45403;BME280;47427;51.976;5.326;2023-03-23T05:47:58;100065.06;;;10.70;100.00
45403;BME280;47427;51.976;5.326;2023-03-23T05:51:22;100054.72;;;10.83;100.00
45403;BME280;47427;51.976;5.326;2023-03-23T05:54:45;100058.50;;;11.05;100.00
45403;BME280;47427;51.976;5.326;2023-03-23T05:58:09;100041.06;;;11.14;100.00
45403;BME280;47427;51.976;5.326;2023-03-23T06:01:34;100061.56;;;11.48;100.00
45403;BME280;47427;51.976;5.326;2023-03-23T06:04:55;100056.41;;;11.55;100.00
45403;BME280;47427;51.976;5.326;2023-03-23T06:08:23;100074.88;;;11.67;100.00
45403;BME280;47427;51.976;5.326;2023-03-23T06:11:45;100082.78;;;11.68;100.00
45403;BME280;47427;51.976;5.326;2023-03-23T06:15:27;100088.88;;;11.63;100.00
45403;BME280;47427;51.976;5.326;2023-03-23T06:18:55;100088.88;;;11.63;100.00
45403;BME280;47427;51.976;5.326;2023-03-23T06:22:24;100088.00;;;11.67;100.00
45403;BME280;47427;51.976;5.326;2023-03-23T06:26:09;100102.97;;;11.74;100.00
45403;BME280;47427;51.976;5.326;2023-03-23T06:29:33;100103.34;;;11.25;100.00
45403;BME280;47427;51.976;5.326;2023-03-23T06:32:55;100109.84;;;10.85;100.00
45403;BME280;47427;51.976;5.326;2023-03-23T06:36:37;100113.88;;;10.60;100.00
45403;BME280;47427;51.976;5.326;2023-03-23T06:40:07;100105.06;;;10.55;100.00
45403;BME280;47427;51.976;5.326;2023-03-23T06:43:38;100120.91;;;10.62;100.00
45403;BME280;47427;51.976;5.326;2023-03-23T06:47:10;100136.69;;;10.64;100.00
45403;BME280;47427;51.976;5.326;2023-03-23T06:50:43;100150.69;;;10.65;100.00
45403;BME280;47427;51.976;5.326;2023-03-23T06:54:06;100156.13;;;10.78;100.00
45403;BME280;47427;51.976;5.326;2023-03-23T06:57:33;100144.00;;;10.87;100.00
45403;BME280;47427;51.976;5.326;2023-03-23T07:00:56;100144.19;;;10.99;100.00
45403;BME280;47427;51.976;5.326;2023-03-23T07:04:24;100155.66;;;11.09;100.00
45403;BME280;47427;51.976;5.326;2023-03-23T07:07:56;100144.34;;;11.13;100.00
45403;BME280;47427;51.976;5.326;2023-03-23T07:11:32;100146.94;;;11.11;100.00
45403;BME280;47427;51.976;5.326;2023-03-23T07:14:58;100144.47;;;11.22;100.00
45403;BME280;47427;51.976;5.326;2023-03-23T07:18:22;100142.78;;;11.27;100.00
45403;BME280;47427;51.976;5.326;2023-03-23T07:21:45;100158.84;;;11.55;100.00
45403;BME280;47427;51.976;5.326;2023-03-23T07:25:07;100160.63;;;11.59;100.00
45403;BME280;47427;51.976;5.326;2023-03-23T07:28:39;100161.56;;;11.64;100.00
45403;BME280;47427;51.976;5.326;2023-03-23T07:32:37;100165.97;;;11.66;100.00
45403;BME280;47427;51.976;5.326;2023-03-23T07:36:00;100160.56;;;11.53;100.00
45403;BME280;47427;51.976;5.326;2023-03-23T07:39:25;100135.84;;;11.32;100.00
45403;BME280;47427;51.976;5.326;2023-03-23T07:42:55;100177.88;;;11.35;100.00
45403;BME280;47427;51.976;5.326;2023-03-23T07:46:27;100173.47;;;11.34;100.00
45403;BME280;47427;51.976;5.326;2023-03-23T07:50:06;100185.66;;;11.29;100.00
45403;BME280;47427;51.976;5.326;2023-03-23T07:53:33;100185.03;;;11.47;100.00
45403;BME280;47427;51.976;5.326;2023-03-23T07:57:13;100187.34;;;11.22;100.00
45403;BME280;47427;51.976;5.326;2023-03-23T08:00:42;100192.06;;;10.82;100.00
45403;BME280;47427;51.976;5.326;2023-03-23T08:04:05;100187.56;;;10.75;100.00
45403;BME280;47427;51.976;5.326;2023-03-23T08:07:42;100196.69;;;10.99;100.00
45403;BME280;47427;51.976;5.326;2023-03-23T08:11:22;100210.06;;;11.20;100.00
45403;BME280;47427;51.976;5.326;2023-03-23T08:15:07;100216.47;;;11.41;100.00
45403;BME280;47427;51.976;5.326;2023-03-23T08:19:05;100220.72;;;11.31;100.00
45403;BME280;47427;51.976;5.326;2023-03-23T08:22:32;100202.03;;;11.08;100.00
45403;BME280;47427;51.976;5.326;2023-03-23T08:26:12;100190.25;;;11.45;100.00
45403;BME280;47427;51.976;5.326;2023-03-23T08:30:04;100213.88;;;11.42;100.00
45403;BME280;47427;51.976;5.326;2023-03-23T08:33:47;100220.22;;;11.60;100.00
45403;BME280;47427;51.976;5.326;2023-03-23T08:37:19;100209.69;;;11.58;100.00
45403;BME280;47427;51.976;5.326;2023-03-23T08:40:51;100215.41;;;12.00;100.00
45403;BME280;47427;51.976;5.326;2023-03-23T08:44:45;100219.34;;;12.48;100.00
45403;BME280;47427;51.976;5.326;2023-03-23T08:48:24;100222.22;;;12.74;100.00
45403;BME280;47427;51.976;5.326;2023-03-23T08:52:07;100222.91;;;14.67;100.00
45403;BME280;47427;51.976;5.326;2023-03-23T08:56:10;100229.22;;;17.39;100.00
45403;BME280;47427;51.976;5.326;2023-03-23T08:59:51;100234.03;;;17.84;99.52
45403;BME280;47427;51.976;5.326;2023-03-23T09:03:37;100238.38;;;21.67;79.83
45403;BME280;47427;51.976;5.326;2023-03-23T09:07:20;100244.91;;;17.59;91.73
45403;BME280;47427;51.976;5.326;2023-03-23T09:10:42;100240.91;;;16.19;100.00
45403;BME280;47427;51.976;5.326;2023-03-23T09:14:06;100237.66;;;15.60;100.00
45403;BME280;47427;51.976;5.326;2023-03-23T09:17:29;100244.59;;;17.08;97.79
45403;BME280;47427;51.976;5.326;2023-03-23T09:20:53;100248.00;;;16.10;99.76
45403;BME280;47427;51.976;5.326;2023-03-23T09:24:15;100231.44;;;19.85;86.99
45403;BME280;47427;51.976;5.326;2023-03-23T09:27:39;100239.28;;;21.68;59.17
45403;BME280;47427;51.976;5.326;2023-03-23T09:31:01;100235.66;;;19.04;66.41
45403;BME280;47427;51.976;5.326;2023-03-23T09:34:24;100239.34;;;18.42;69.12
45403;BME280;47427;51.976;5.326;2023-03-23T09:37:47;100246.19;;;21.43;60.51
45403;BME280;47427;51.976;5.326;2023-03-23T09:48:52;100252.72;;;22.52;53.66
45403;BME280;47427;51.976;5.326;2023-03-23T09:52:16;100245.53;;;21.67;54.53
45403;BME280;47427;51.976;5.326;2023-03-23T09:55:39;100264.72;;;19.61;58.23
45403;BME280;47427;51.976;5.326;2023-03-23T10:03:18;100264.28;;;19.84;57.88
45403;BME280;47427;51.976;5.326;2023-03-23T10:06:41;100282.72;;;19.02;59.39
45403;BME280;47427;51.976;5.326;2023-03-23T10:10:03;100285.66;;;19.80;56.46
45403;BME280;47427;51.976;5.326;2023-03-23T10:17:15;100283.31;;;22.14;52.31
45403;BME280;47427;51.976;5.326;2023-03-23T10:20:55;100283.91;;;18.84;58.22
45403;BME280;47427;51.976;5.326;2023-03-23T10:24:26;100290.88;;;17.60;60.83
45403;BME280;47427;51.976;5.326;2023-03-23T10:28:11;100282.75;;;21.06;57.14
45403;BME280;47427;51.976;5.326;2023-03-23T10:31:41;100286.44;;;19.40;57.49
45403;BME280;47427;51.976;5.326;2023-03-23T10:35:12;100285.56;;;17.60;63.84
45403;BME280;47427;51.976;5.326;2023-03-23T10:38:44;100285.44;;;18.40;59.74
45403;BME280;47427;51.976;5.326;2023-03-23T10:42:09;100287.38;;;16.62;63.54
45403;BME280;47427;51.976;5.326;2023-03-23T10:45:31;100285.34;;;16.98;63.97
45403;BME280;47427;51.976;5.326;2023-03-23T10:48:55;100281.63;;;17.17;64.32
45403;BME280;47427;51.976;5.326;2023-03-23T10:52:34;100295.81;;;21.16;51.34
45403;BME280;47427;51.976;5.326;2023-03-23T10:59:41;100287.38;;;25.60;43.06
45403;BME280;47427;51.976;5.326;2023-03-23T11:06:35;100294.78;;;18.66;54.27
45403;BME280;47427;51.976;5.326;2023-03-23T11:10:39;100302.63;;;18.16;56.73
45403;BME280;47427;51.976;5.326;2023-03-23T11:14:25;100293.00;;;23.77;48.97
45403;BME280;47427;51.976;5.326;2023-03-23T11:17:56;100285.22;;;27.35;37.98
45403;BME280;47427;51.976;5.326;2023-03-23T11:21:23;100281.16;;;28.90;36.84
45403;BME280;47427;51.976;5.326;2023-03-23T11:24:50;100271.03;;;24.82;41.17
45403;BME280;47427;51.976;5.326;2023-03-23T11:28:13;100278.81;;;21.55;45.42
45403;BME280;47427;51.976;5.326;2023-03-23T11:31:50;100267.97;;;21.59;47.18
45403;BME280;47427;51.976;5.326;2023-03-23T11:35:31;100271.25;;;21.36;46.52
45403;BME280;47427;51.976;5.326;2023-03-23T11:38:54;100283.34;;;25.90;38.16
45403;BME280;47427;51.976;5.326;2023-03-23T11:42:21;100258.56;;;25.82;36.46
45403;BME280;47427;51.976;5.326;2023-03-23T11:46:05;100264.22;;;23.09;42.74
45403;BME280;47427;51.976;5.326;2023-03-23T11:53:37;100280.88;;;17.86;52.75
45403;BME280;47427;51.976;5.326;2023-03-23T11:57:05;100259.00;;;16.81;57.46
45403;BME280;47427;51.976;5.326;2023-03-23T12:00:27;100269.44;;;16.96;58.59
45403;BME280;47427;51.976;5.326;2023-03-23T12:04:46;100274.16;;;19.33;53.92
45403;BME280;47427;51.976;5.326;2023-03-23T12:12:25;100285.44;;;18.97;53.65
45403;BME280;47427;51.976;5.326;2023-03-23T12:16:13;100277.84;;;18.73;55.39
45403;BME280;47427;51.976;5.326;2023-03-23T12:23:50;100278.22;;;17.86;58.48
45403;BME280;47427;51.976;5.326;2023-03-23T12:36:03;100272.66;;;17.30;62.93
45403;BME280;47427;51.976;5.326;2023-03-23T12:44:10;100256.66;;;19.64;57.53
45403;BME280;47427;51.976;5.326;2023-03-23T12:47:42;100259.75;;;21.67;50.13
45403;BME280;47427;51.976;5.326;2023-03-23T12:59:48;100231.50;;;26.25;38.60
45403;BME280;47427;51.976;5.326;2023-03-23T13:03:22;100243.63;;;25.17;38.90
45403;BME280;47427;51.976;5.326;2023-03-23T13:06:47;100234.38;;;26.58;35.72
45403;BME280;47427;51.976;5.326;2023-03-23T13:10:24;100240.34;;;26.65;36.57
45403;BME280;47427;51.976;5.326;2023-03-23T13:13:55;100246.75;;;28.78;34.13
45403;BME280;47427;51.976;5.326;2023-03-23T13:17:34;100249.59;;;26.40;36.78
45403;BME280;47427;51.976;5.326;2023-03-23T13:21:41;100261.91;;;25.89;38.89
45403;BME280;47427;51.976;5.326;2023-03-23T13:25:17;100254.69;;;26.46;37.39
45403;BME280;47427;51.976;5.326;2023-03-23T13:32:17;100243.84;;;19.41;51.05
45403;BME280;47427;51.976;5.326;2023-03-23T13:35:41;100249.09;;;17.82;56.44
45403;BME280;47427;51.976;5.326;2023-03-23T13:39:17;100256.34;;;16.81;60.72
45403;BME280;47427;51.976;5.326;2023-03-23T13:42:50;100253.31;;;16.10;64.04
45403;BME280;47427;51.976;5.326;2023-03-23T13:46:32;100261.53;;;15.39;75.40
45403;BME280;47427;51.976;5.326;2023-03-23T13:53:50;100278.97;;;13.65;100.00
45403;BME280;47427;51.976;5.326;2023-03-23T14:01:16;100268.53;;;15.51;100.00
45403;BME280;47427;51.976;5.326;2023-03-23T14:04:38;100270.09;;;17.24;94.22
45403;BME280;47427;51.976;5.326;2023-03-23T14:11:55;100261.03;;;20.87;69.16
45403;BME280;47427;51.976;5.326;2023-03-23T14:15:18;100263.03;;;21.13;68.54
45403;BME280;47427;51.976;5.326;2023-03-23T14:18:59;100256.13;;;23.10;55.37
45403;BME280;47427;51.976;5.326;2023-03-23T14:22:27;100252.34;;;22.64;49.45
45403;BME280;47427;51.976;5.326;2023-03-23T14:26:00;100248.59;;;21.84;54.32
45403;BME280;47427;51.976;5.326;2023-03-23T14:29:30;100249.81;;;23.38;47.98
45403;BME280;47427;51.976;5.326;2023-03-23T14:33:02;100248.84;;;23.39;48.65
45403;BME280;47427;51.976;5.326;2023-03-23T14:36:29;100247.75;;;25.44;43.31
45403;BME280;47427;51.976;5.326;2023-03-23T14:39:54;100221.44;;;24.27;42.97
45403;BME280;47427;51.976;5.326;2023-03-23T14:43:20;100221.59;;;23.04;45.04
45403;BME280;47427;51.976;5.326;2023-03-23T14:46:44;100205.00;;;23.67;42.58
45403;BME280;47427;51.976;5.326;2023-03-23T14:53:54;100180.22;;;23.85;42.82
45403;BME280;47427;51.976;5.326;2023-03-23T14:57:28;100174.38;;;24.19;41.59
45403;BME280;47427;51.976;5.326;2023-03-23T15:04:27;100175.53;;;23.43;41.49
45403;BME280;47427;51.976;5.326;2023-03-23T15:07:54;100195.63;;;23.55;42.40
45403;BME280;47427;51.976;5.326;2023-03-23T15:14:50;100202.09;;;24.62;40.30
45403;BME280;47427;51.976;5.326;2023-03-23T15:19:21;100209.69;;;24.73;40.04
45403;BME280;47427;51.976;5.326;2023-03-23T15:22:48;100191.00;;;22.85;43.32
45403;BME280;47427;51.976;5.326;2023-03-23T15:26:44;100172.88;;;21.24;47.43
45403;BME280;47427;51.976;5.326;2023-03-23T15:30:36;100150.69;;;19.43;52.91
45403;BME280;47427;51.976;5.326;2023-03-23T15:34:19;100152.34;;;19.05;54.82
45403;BME280;47427;51.976;5.326;2023-03-23T15:37:47;100153.75;;;18.79;54.22
45403;BME280;47427;51.976;5.326;2023-03-23T15:41:26;100141.91;;;20.53;51.51
45403;BME280;47427;51.976;5.326;2023-03-23T15:45:26;100144.19;;;19.56;53.45
45403;BME280;47427;51.976;5.326;2023-03-23T15:52:22;100159.09;;;18.75;54.59
45403;BME280;47427;51.976;5.326;2023-03-23T15:55:45;100150.94;;;18.36;57.38
45403;BME280;47427;51.976;5.326;2023-03-23T15:59:09;100140.44;;;20.05;53.98
45403;BME280;47427;51.976;5.326;2023-03-23T16:02:32;100136.84;;;20.42;52.07
45403;BME280;47427;51.976;5.326;2023-03-23T16:05:56;100150.94;;;19.31;54.41
45403;BME280;47427;51.976;5.326;2023-03-23T16:09:21;100143.13;;;17.68;60.41
45403;BME280;47427;51.976;5.326;2023-03-23T16:12:45;100161.47;;;17.14;62.89
45403;BME280;47427;51.976;5.326;2023-03-23T16:16:17;100140.06;;;17.32;64.48
45403;BME280;47427;51.976;5.326;2023-03-23T16:19:40;100143.03;;;17.06;66.06
45403;BME280;47427;51.976;5.326;2023-03-23T16:23:02;100133.53;;;16.86;67.61
45403;BME280;47427;51.976;5.326;2023-03-23T16:26:24;100132.03;;;17.37;65.71
45403;BME280;47427;51.976;5.326;2023-03-23T16:29:47;100143.16;;;16.95;66.37
45403;BME280;47427;51.976;5.326;2023-03-23T16:33:09;100149.69;;;16.59;68.06
45403;BME280;47427;51.976;5.326;2023-03-23T16:36:32;100157.81;;;16.39;69.88
45403;BME280;47427;51.976;5.326;2023-03-23T16:39:56;100171.22;;;16.19;69.59
45403;BME280;47427;51.976;5.326;2023-03-23T16:43:18;100159.94;;;15.89;70.82
45403;BME280;47427;51.976;5.326;2023-03-23T16:46:59;100163.56;;;15.74;71.21
45403;BME280;47427;51.976;5.326;2023-03-23T16:50:22;100152.81;;;16.02;70.41
45403;BME280;47427;51.976;5.326;2023-03-23T16:54:03;100153.56;;;16.19;69.82
45403;BME280;47427;51.976;5.326;2023-03-23T16:57:26;100134.47;;;16.81;67.47
45403;BME280;47427;51.976;5.326;2023-03-23T17:00:50;100150.09;;;16.10;69.40
45403;BME280;47427;51.976;5.326;2023-03-23T17:04:13;100147.66;;;15.80;70.13
45403;BME280;47427;51.976;5.326;2023-03-23T17:07:40;100154.81;;;15.57;71.21
45403;BME280;47427;51.976;5.326;2023-03-23T17:11:03;100168.06;;;15.55;71.77
45403;BME280;47427;51.976;5.326;2023-03-23T17:14:25;100146.22;;;15.12;72.80
45403;BME280;47427;51.976;5.326;2023-03-23T17:17:46;100153.31;;;14.88;74.47
45403;BME280;47427;51.976;5.326;2023-03-23T17:21:29;100148.97;;;14.72;76.51
45403;BME280;47427;51.976;5.326;2023-03-23T17:24:51;100140.19;;;14.64;77.27
45403;BME280;47427;51.976;5.326;2023-03-23T17:28:14;100155.13;;;14.51;77.85
45403;BME280;47427;51.976;5.326;2023-03-23T17:31:36;100122.59;;;14.27;78.87
45403;BME280;47427;51.976;5.326;2023-03-23T17:34:58;100139.28;;;14.40;79.09
45403;BME280;47427;51.976;5.326;2023-03-23T17:38:21;100144.59;;;14.46;79.79
45403;BME280;47427;51.976;5.326;2023-03-23T17:41:43;100119.97;;;14.29;80.17
45403;BME280;47427;51.976;5.326;2023-03-23T17:45:07;100143.72;;;14.21;81.52
45403;BME280;47427;51.976;5.326;2023-03-23T17:48:30;100134.91;;;14.13;82.51
45403;BME280;47427;51.976;5.326;2023-03-23T17:51:51;100133.16;;;14.04;83.71
45403;BME280;47427;51.976;5.326;2023-03-23T17:55:15;100123.50;;;14.08;83.87
45403;BME280;47427;51.976;5.326;2023-03-23T17:58:37;100136.66;;;14.13;84.61
45403;BME280;47427;51.976;5.326;2023-03-23T18:01:59;100122.59;;;14.09;85.16
45403;BME280;47427;51.976;5.326;2023-03-23T18:05:22;100141.94;;;14.06;85.48
45403;BME280;47427;51.976;5.326;2023-03-23T18:08:46;100116.44;;;14.10;85.72
45403;BME280;47427;51.976;5.326;2023-03-23T18:12:07;100112.91;;;14.05;86.16
45403;BME280;47427;51.976;5.326;2023-03-23T18:15:30;100130.53;;;14.11;86.93
45403;BME280;47427;51.976;5.326;2023-03-23T18:18:53;100114.69;;;14.09;87.16
45403;BME280;47427;51.976;5.326;2023-03-23T18:22:17;100111.19;;;14.08;87.50
45403;BME280;47427;51.976;5.326;2023-03-23T18:25:40;100112.91;;;14.02;88.01
45403;BME280;47427;51.976;5.326;2023-03-23T18:29:02;100097.13;;;13.85;89.04
45403;BME280;47427;51.976;5.326;2023-03-23T18:32:25;100113.78;;;13.92;89.50
45403;BME280;47427;51.976;5.326;2023-03-23T18:35:59;100097.97;;;13.88;89.77
45403;BME280;47427;51.976;5.326;2023-03-23T18:39:20;100103.25;;;13.73;91.56
45403;BME280;47427;51.976;5.326;2023-03-23T18:42:43;100097.03;;;13.54;93.40
45403;BME280;47427;51.976;5.326;2023-03-23T18:46:05;100095.25;;;13.41;95.79
45403;BME280;47427;51.976;5.326;2023-03-23T18:49:28;100082.06;;;13.36;97.70
45403;BME280;47427;51.976;5.326;2023-03-23T18:52:51;100076.81;;;13.44;97.61
45403;BME280;47427;51.976;5.326;2023-03-23T18:56:16;100072.44;;;13.40;98.40
45403;BME280;47427;51.976;5.326;2023-03-23T18:59:39;100076.84;;;13.39;99.27
45403;BME280;47427;51.976;5.326;2023-03-23T19:03:03;100068.84;;;13.24;100.00
45403;BME280;47427;51.976;5.326;2023-03-23T19:06:27;100053.81;;;12.91;100.00
45403;BME280;47427;51.976;5.326;2023-03-23T19:10:09;100059.09;;;12.97;100.00
45403;BME280;47427;51.976;5.326;2023-03-23T19:13:32;100059.97;;;12.91;100.00
45403;BME280;47427;51.976;5.326;2023-03-23T19:16:55;100056.50;;;13.01;100.00
45403;BME280;47427;51.976;5.326;2023-03-23T19:20:17;100058.31;;;13.19;100.00
45403;BME280;47427;51.976;5.326;2023-03-23T19:23:40;100052.13;;;13.16;100.00
45403;BME280;47427;51.976;5.326;2023-03-23T19:27:03;100041.59;;;13.19;100.00
45403;BME280;47427;51.976;5.326;2023-03-23T19:30:25;100038.09;;;13.15;100.00
45403;BME280;47427;51.976;5.326;2023-03-23T19:33:48;100043.34;;;13.11;100.00
45403;BME280;47427;51.976;5.326;2023-03-23T19:37:10;100040.50;;;12.63;100.00
45403;BME280;47427;51.976;5.326;2023-03-23T19:40:32;100044.84;;;12.52;100.00
45403;BME280;47427;51.976;5.326;2023-03-23T19:43:55;100036.06;;;12.44;100.00
45403;BME280;47427;51.976;5.326;2023-03-23T19:47:17;100035.06;;;12.28;100.00